Language selection

Weather shortcuts

Lake of the Woods: Past 24 Hour Conditions

 

Slate Island - 45136

03:00 PM EDT 14 June 2024Buoy position: 48.52N 86.95W
Disclaimer

This table is a summary of hourly weather conditions for the past 24 hours.
Please note that these observations might not always be representative of weather conditions over their associated marine area.

Date / Time
(EDT)
Wind(knots) Wave height(m) Wave period(s) Pressure(kPa) Air tempC) Water tempC)
14 June 2024
15:00 WSW 8 gusts 9 0.17 3.9 102.0 7 5
14:00 W 8 gusts 8 0.18 4.0 102.0 6 5
13:00 WSW 6 gusts 8 0.19 4.1 102.0 7 5
12:00 SSW 4 gusts 5 0.21 4.2 102.0 8 6
11:00 W 2 gusts 3 0.21 4.2 102.0 8 5
10:00 NE 3 gusts 3 0.25 2.6 101.9 7 5
9:00 NE 5 gusts 6 0.28 3.0 101.9 7 4
8:00 NE 6 gusts 8 0.39 3.1 101.8 7 4
7:00 NE 11 gusts 12 0.44 3.3 101.8 7 4
6:00 NE 10 gusts 12 0.39 2.9 101.6 7 4
5:00 ENE 11 gusts 15 0.30 2.5 101.5 7 4
4:00 NE 13 gusts 14 0.27 2.1 101.4 8 4
3:00 NNE 12 gusts 13 0.28 2.9 101.3 9 4
2:00 NW 9 gusts 10 0.29 3.1 101.2 7 4
1:00 WNW 8 gusts 8 0.30 3.2 101.2 7 4
0:00 W 6 gusts 8 0.36 3.4 101.1 7 4
13 June 2024
23:00 NW 5 gusts 6 0.44 3.6 101.0 8 4
22:00 NW 8 gusts 9 0.55 3.9 101.0 7 5
21:00 NW 11 gusts 13 0.68 3.8 100.9 8 5
20:00 WNW 15 gusts 16 0.79 4.0 100.8 9 5
19:00 W 13 gusts 16 0.59 3.9 100.7 8 5
18:00 W 15 gusts 16 0.51 3.9 100.7 7 5
17:00 WSW 12 gusts 13 0.55 3.8 100.7 8 5
16:00 NNW 9 gusts 11 0.46 3.1 100.5 10 5
15:00 NW 9 gusts 12 0.37 4.3 100.6 7 5

Zoom-in to make a selection

Map of Great Lakes - Lake Superior marine weather areas Mid Superior - 45001 East Superior - 45004 West Superior - 45006 Slate Island - 45136 Lake Of the Woods - 45148 Kenora Airport Royal Island Armstrong Airport Caribou Island Marathon Airport Pukaskwa National Park Thunder Bay Airport Welcome Island Little Flatland Island Sault Ste. Marie Airport Wawa Airport
Legend:
buoy Buoy
land station Land Station

Great Lakes - Lake Superior Area

Another Region

Features

New Predicting and Alerting Coastal Flooding Program

Find out about coastal flooding coverage, forecasts and warnings in your region

Date modified: